createdAt,value
2019-02-24T00:02:18.633Z,1.47
2019-02-24T00:08:13.694Z,1.54
2019-02-24T00:14:08.707Z,1.5
2019-02-24T00:20:03.651Z,1.42
2019-02-24T00:25:58.638Z,1.43
2019-02-24T00:31:53.646Z,1.34
2019-02-24T00:37:48.665Z,1.86
2019-02-24T00:43:43.645Z,2.06
2019-02-24T00:49:38.677Z,1.94
2019-02-24T00:55:33.679Z,1.65
2019-02-24T01:01:28.699Z,1.54
2019-02-24T01:07:23.662Z,1.45
2019-02-24T01:13:18.704Z,1.31
2019-02-24T01:19:13.677Z,1.49
2019-02-24T01:25:08.686Z,1.71
2019-02-24T01:31:03.691Z,1.8
2019-02-24T01:36:58.683Z,1.35
2019-02-24T01:42:53.687Z,1.27
2019-02-24T01:48:48.735Z,1.96
2019-02-24T01:54:43.683Z,1.1
2019-02-24T02:00:38.699Z,1.45
2019-02-24T02:06:33.703Z,1.48
2019-02-24T02:12:28.699Z,1.22
2019-02-24T02:18:23.716Z,1.27
2019-02-24T02:24:18.702Z,1.33
2019-02-24T02:30:13.706Z,1.3
2019-02-24T02:36:08.713Z,0.85
2019-02-24T02:42:03.726Z,1.18
2019-02-24T02:47:58.732Z,1.38
2019-02-24T02:53:53.719Z,1.39
2019-02-24T02:59:48.748Z,1.44
2019-02-24T03:05:43.730Z,1.55
2019-02-24T03:11:38.729Z,1.3
2019-02-24T03:17:33.771Z,1.38
2019-02-24T03:23:28.768Z,1.63
2019-02-24T03:29:23.735Z,1.41
2019-02-24T03:35:18.766Z,1.8
2019-02-24T03:41:13.803Z,1.8
2019-02-24T03:47:08.745Z,1.83
2019-02-24T03:53:03.760Z,1.88
2019-02-24T03:58:58.802Z,1.78
2019-02-24T04:04:53.760Z,1.89
2019-02-24T04:10:48.782Z,1.7
2019-02-24T04:16:43.761Z,2.1
2019-02-24T04:22:38.819Z,2.49
2019-02-24T04:28:33.779Z,1.91
2019-02-24T04:34:28.775Z,1.97
2019-02-24T04:40:23.772Z,2.1
2019-02-24T04:46:18.912Z,2.25
2019-02-24T04:52:13.787Z,1.58
2019-02-24T04:58:08.804Z,2.2
2019-02-24T05:04:03.825Z,1.94
2019-02-24T05:09:58.776Z,2.11
2019-02-24T05:15:53.815Z,1.94
2019-02-24T05:21:48.811Z,1.71
2019-02-24T05:27:43.802Z,1.87
2019-02-24T05:33:38.843Z,1.69
2019-02-24T05:39:33.811Z,2.15
2019-02-24T05:45:28.821Z,2.11
2019-02-24T05:51:23.822Z,1.68
2019-02-24T05:57:18.833Z,2.22
2019-02-24T06:03:13.819Z,2.07
2019-02-24T06:09:08.842Z,2.7
2019-02-24T06:15:03.826Z,2.12
2019-02-24T06:20:58.833Z,1.93
2019-02-24T06:26:53.845Z,2.03
2019-02-24T06:32:48.848Z,2.02
2019-02-24T06:38:43.826Z,2.17
2019-02-24T06:44:38.840Z,1.99
2019-02-24T06:50:35.495Z,1.88
2019-02-24T06:56:28.855Z,1.4
2019-02-24T07:02:23.864Z,1.82
2019-02-24T07:08:18.851Z,1.71
2019-02-24T07:14:13.879Z,1.83
2019-02-24T07:20:08.879Z,1.57
2019-02-24T07:26:03.863Z,1.71
2019-02-24T07:31:58.861Z,1.85
2019-02-24T07:37:53.900Z,1.61
2019-02-24T07:43:48.861Z,2.21
2019-02-24T07:49:43.877Z,2.1
2019-02-24T07:55:38.859Z,1.75
2019-02-24T08:01:33.866Z,1.7
2019-02-24T08:07:28.896Z,1.81
2019-02-24T08:13:23.902Z,1.94
2019-02-24T08:19:18.869Z,1.95
2019-02-24T08:25:13.907Z,1.57
2019-02-24T08:31:08.918Z,1.55
2019-02-24T08:37:03.910Z,1.7
2019-02-24T08:42:58.899Z,0.91
2019-02-24T08:48:53.967Z,1.54
2019-02-24T08:54:48.925Z,1.41
2019-02-24T09:00:50.690Z,1.73
2019-02-24T09:06:38.954Z,1.89
2019-02-24T09:12:33.990Z,1.48
2019-02-24T09:18:28.952Z,1.74
2019-02-24T09:24:23.930Z,3.62
2019-02-24T09:30:18.947Z,1.96
2019-02-24T09:36:13.921Z,2.38
2019-02-24T09:42:08.950Z,2.67
2019-02-24T09:48:03.939Z,2.55
2019-02-24T09:53:58.969Z,1.83
2019-02-24T09:59:53.954Z,1.74
2019-02-24T10:05:48.966Z,1.39
2019-02-24T10:11:44.021Z,1.81
2019-02-24T10:17:38.951Z,2.17
2019-02-24T10:23:33.969Z,1.87
2019-02-24T10:29:28.976Z,7.22
2019-02-24T10:35:23.956Z,2.72
2019-02-24T10:41:18.985Z,4.88
2019-02-24T10:47:13.956Z,5.53
2019-02-24T10:53:08.970Z,2.72
2019-02-24T10:59:03.971Z,2.07
2019-02-24T11:04:58.994Z,2.11
2019-02-24T11:10:53.978Z,1.76
2019-02-24T11:16:49.008Z,2.72
2019-02-24T11:22:44.052Z,3.54
2019-02-24T11:28:38.990Z,2.26
2019-02-24T11:34:34.017Z,1.96
2019-02-24T11:40:28.986Z,6.5
2019-02-24T11:46:24.011Z,2.26
2019-02-24T11:52:19.005Z,2.57
2019-02-24T11:58:14.008Z,2.3
2019-02-24T12:04:09.021Z,2.17
2019-02-24T12:10:04.018Z,1.96
2019-02-24T12:15:59.041Z,2.29
2019-02-24T12:21:54.017Z,1.83
2019-02-24T12:27:49.022Z,2.84
2019-02-24T12:33:44.026Z,2.17
2019-02-24T12:39:39.038Z,2.14
2019-02-24T12:45:34.038Z,2.18
2019-02-24T12:51:29.044Z,2.99
2019-02-24T12:57:24.041Z,2.77
2019-02-24T13:03:23.889Z,3.18
2019-02-24T13:09:14.059Z,2.25
2019-02-24T13:15:09.051Z,1.7
2019-02-24T13:21:04.048Z,1.82
2019-02-24T13:26:59.058Z,2.98
2019-02-24T13:32:54.073Z,2.77
2019-02-24T13:38:49.068Z,2.46
2019-02-24T13:44:44.157Z,2.42
2019-02-24T13:50:39.077Z,2.78
2019-02-24T13:56:34.089Z,2.21
2019-02-24T14:02:29.056Z,2.95
2019-02-24T14:08:24.079Z,2.12
2019-02-24T14:14:19.115Z,2.9
2019-02-24T14:20:14.096Z,1.89
2019-02-24T14:26:09.082Z,1.78
2019-02-24T14:32:04.094Z,2.17
2019-02-24T14:37:59.122Z,1.84
2019-02-24T14:43:54.089Z,2.05
2019-02-24T14:49:49.141Z,2.06
2019-02-24T14:55:44.100Z,2.93
2019-02-24T15:01:39.138Z,1.91
2019-02-24T15:07:34.124Z,2.78
2019-02-24T15:13:29.121Z,1.95
2019-02-24T15:19:24.150Z,1.9
2019-02-24T15:25:19.170Z,1.49
2019-02-24T15:31:14.109Z,1.55
2019-02-24T15:37:09.151Z,2.24
2019-02-24T15:43:04.122Z,2.47
2019-02-24T15:48:59.180Z,1.93
2019-02-24T15:54:54.201Z,2.43
2019-02-24T16:00:49.128Z,2.5
2019-02-24T16:06:44.131Z,3.08
2019-02-24T16:12:39.153Z,2.17
2019-02-24T16:18:34.170Z,2.97
2019-02-24T16:24:29.137Z,3.76
2019-02-24T16:30:24.143Z,2.01
2019-02-24T16:36:19.152Z,2.11
2019-02-24T16:42:14.165Z,3.07
2019-02-24T16:48:09.159Z,2.22
2019-02-24T16:54:04.183Z,2.53
2019-02-24T16:59:59.162Z,1.91
2019-02-24T17:05:54.183Z,2.92
2019-02-24T17:11:49.172Z,3.19
2019-02-24T17:17:44.210Z,2.6
2019-02-24T17:23:39.211Z,3.43
2019-02-24T17:29:34.182Z,2.91
2019-02-24T17:35:29.203Z,4.49
2019-02-24T17:41:24.207Z,2.53
2019-02-24T17:47:19.207Z,3.08
2019-02-24T17:53:14.230Z,3.59
2019-02-24T17:59:09.214Z,2.53
2019-02-24T18:05:04.223Z,2.51
2019-02-24T18:10:59.240Z,3.14
2019-02-24T18:16:54.212Z,3.09
2019-02-24T18:22:49.219Z,2.8
2019-02-24T18:28:44.233Z,3.31
2019-02-24T18:34:39.249Z,2.83
2019-02-24T18:40:34.232Z,2.19
2019-02-24T18:46:29.241Z,2.95
2019-02-24T18:52:24.238Z,3.08
2019-02-24T18:58:21.045Z,2.96
2019-02-24T19:04:14.245Z,6.26
2019-02-24T19:10:09.263Z,3.86
2019-02-24T19:16:04.266Z,5.56
2019-02-24T19:21:59.253Z,8.2
2019-02-24T19:27:54.268Z,3.9
2019-02-24T19:33:49.293Z,5.58
2019-02-24T19:39:44.258Z,8.75
2019-02-24T19:45:39.276Z,6.22
2019-02-24T19:51:34.289Z,4.86
2019-02-24T19:57:29.262Z,3.39
2019-02-24T20:03:24.266Z,5.67
2019-02-24T20:09:19.334Z,6.75
2019-02-24T20:15:14.311Z,5.79
2019-02-24T20:21:09.272Z,5.86
2019-02-24T20:27:04.273Z,6.88
2019-02-24T20:32:59.289Z,5.92
2019-02-24T20:38:54.295Z,6.83
2019-02-24T20:44:49.321Z,6.45
2019-02-24T20:50:44.306Z,6.56
2019-02-24T20:56:39.325Z,6.13
2019-02-24T21:02:34.321Z,5.17
2019-02-24T21:08:29.342Z,5.55
2019-02-24T21:14:24.320Z,15.93
2019-02-24T21:20:19.317Z,10.33
2019-02-24T21:26:14.327Z,4.56
2019-02-24T21:32:09.316Z,4.45
2019-02-24T21:38:04.323Z,4.15
2019-02-24T21:43:59.319Z,8.55
2019-02-24T21:49:54.373Z,2.96
2019-02-24T21:55:49.348Z,3.84
2019-02-24T22:01:44.333Z,3
2019-02-24T22:07:39.351Z,3.27
2019-02-24T22:13:34.337Z,4.67
2019-02-24T22:19:29.385Z,3.31
2019-02-24T22:25:24.349Z,5.55
2019-02-24T22:31:19.350Z,7.44
2019-02-24T22:37:14.348Z,5.01
2019-02-24T22:43:09.359Z,3.94
2019-02-24T22:49:04.365Z,7.33
2019-02-24T22:54:59.379Z,4.06
2019-02-24T23:00:54.372Z,4.7
2019-02-24T23:06:49.366Z,8.86
2019-02-24T23:12:44.351Z,4.02
2019-02-24T23:18:39.406Z,3.74
2019-02-24T23:24:34.472Z,3.61
2019-02-24T23:30:29.375Z,3.61
2019-02-24T23:36:24.413Z,3.35
2019-02-24T23:42:19.398Z,7.6
2019-02-24T23:48:14.448Z,8.48
2019-02-24T23:54:09.451Z,4.79
